Mount Sterling, Missouri
Current Conditions -  °F | °C
As of 9:53 AM on Thursday 30 Oct 2014 (Local Time) from KVIH Reporting Station
Broken Clouds Broken Clouds  
Wind Chill: 11°   Ceiling: 12000
Heat Index: 11°   Visibility: 10mi
Dew Point:   Wind: 15mph
Humidity: 49%   Direction: 190°S
Pressure: 30.1"   Gusts: NA
Location:  38.47°N, 91.63°W
Report Text: KVIH 301453Z AUTO 19013KT 10SM SCT090 BKN120 11/01 A3010 RMK AO2 SLP196 T01110006 53003
Loading
Personal Weather Stations






























Interactive Weather Map
Tropical Storm Tracking
New forecast layout! Learn more

10-Day Weather Forecast

Advertisements
Track Severe Weather on mobile